D/T METAR WX W/DIR W/SPE G/SPE TEMP DEWP
25/02/20 14:50 EGKK 251450Z 26014KT 9999 BKN032 08/02 Q0998 W (260°) 16.1mph 8°C 2°C
25/02/20 14:20 EGKK 251420Z 25014KT 9999 -SHRA BKN032 08/02 Q0998 -SHRA WSW (250°) 16.1mph 8°C 2°C
25/02/20 13:50 EGKK 251350Z 26015KT 9999 FEW038 SCT047 08/01 Q0999 W (260°) 17.3mph 8°C 1°C
25/02/20 13:20 EGKK 251320Z 27012KT 9999 VCSH FEW024 SCT034 08/02 Q0999 VCSH W (270°) 13.8mph 8°C 2°C
25/02/20 12:50 EGKK 251250Z 23011KT 9999 SCT027 08/03 Q0999 SW (230°) 12.7mph 8°C 3°C
25/02/20 12:20 EGKK 251220Z 24011KT 9999 FEW027 09/03 Q1000 WSW (240°) 12.7mph 9°C 3°C
25/02/20 11:50 EGKK 251150Z 25011KT 9999 SCT028 08/03 Q1000 WSW (250°) 12.7mph 8°C 3°C
25/02/20 10:50 EGKK 251050Z 23010KT 200V270 9999 BKN023 08/03 Q1001 SW (230°) 11.5mph 8°C 3°C
25/02/20 10:20 EGKK 251020Z 26014KT 220V280 9999 SCT024 08/03 Q1001 W (260°) 16.1mph 8°C 3°C
25/02/20 09:50 EGKK 250950Z 25012KT 9999 SCT022 07/03 Q1002 WSW (250°) 13.8mph 7°C 3°C
25/02/20 08:50 EGKK 250850Z 24008KT 9999 SCT020 06/04 Q1003 WSW (240°) 9.2mph 6°C 4°C
25/02/20 08:20 EGKK 250820Z 24011G21KT 9999 SCT018 06/03 Q1003 WSW (240°) 12.7mph 24.2mph 6°C 3°C
25/02/20 07:50 EGKK 250750Z 24010KT 9999 FEW027 06/03 Q1003 WSW (240°) 11.5mph 6°C 3°C
25/02/20 07:20 EGKK 250720Z 22008KT 9999 FEW019 05/03 Q1003 SW (220°) 9.2mph 5°C 3°C
25/02/20 06:50 EGKK 250650Z 22007KT 9999 SCT028 05/03 Q1003 SW (220°) 8.1mph 5°C 3°C
25/02/20 06:20 EGKK 250620Z 22008KT 9999 -RA FEW030 SCT038 05/03 Q1004 -RA SW (220°) 9.2mph 5°C 3°C
25/02/20 05:50 EGKK 250550Z 23007KT CAVOK 05/03 Q1004 SW (230°) 8.1mph 5°C 3°C
25/02/20 04:50 EGKK 250450Z 25009KT CAVOK 05/03 Q1004 WSW (250°) 10.4mph 5°C 3°C
25/02/20 04:20 EGKK 250420Z 24009KT CAVOK 06/03 Q1004 WSW (240°) 10.4mph 6°C 3°C
25/02/20 03:20 EGKK 250320Z 24009KT CAVOK 06/04 Q1005 WSW (240°) 10.4mph 6°C 4°C
25/02/20 02:20 EGKK 250220Z 25010KT 9999 -RA FEW021 07/04 Q1005 -RA WSW (250°) 11.5mph 7°C 4°C
25/02/20 01:50 EGKK 250150Z 24008KT 9999 FEW025 07/04 Q1005 WSW (240°) 9.2mph 7°C 4°C
25/02/20 01:20 EGKK 250120Z 24009KT 9999 SCT025 07/04 Q1005 WSW (240°) 10.4mph 7°C 4°C
25/02/20 00:50 EGKK 250050Z 23006KT 9999 FEW038 06/04 Q1005 SW (230°) 6.9mph 6°C 4°C
25/02/20 00:20 EGKK 250020Z 25009KT CAVOK 06/04 Q1005 WSW (250°) 10.4mph 6°C 4°C
24/02/20 23:50 EGKK 242350Z 26009KT CAVOK 06/03 Q1006 W (260°) 10.4mph 6°C 3°C
24/02/20 22:50 EGKK 242250Z 26012KT CAVOK 07/05 Q1006 W (260°) 13.8mph 7°C 5°C
24/02/20 22:20 EGKK 242220Z 26011KT CAVOK 07/05 Q1006 W (260°) 12.7mph 7°C 5°C
24/02/20 21:50 EGKK 242150Z 26014KT 9999 FEW039 08/05 Q1006 W (260°) 16.1mph 8°C 5°C
24/02/20 21:20 EGKK 242120Z 26018KT 9999 FEW022 08/05 Q1006 W (260°) 20.7mph 8°C 5°C
24/02/20 20:50 EGKK 242050Z 26018KT 9999 FEW023 09/05 Q1006 W (260°) 20.7mph 9°C 5°C
24/02/20 20:20 EGKK 242020Z 27014KT 9999 FEW027 10/07 Q1006 W (270°) 16.1mph 10°C 7°C
24/02/20 19:50 EGKK 241950Z 26012KT 9999 FEW023 10/07 Q1006 W (260°) 13.8mph 10°C 7°C
24/02/20 19:20 EGKK 241920Z 24011KT 9999 FEW020 SCT029 11/09 Q1006 WSW (240°) 12.7mph 11°C 9°C
24/02/20 18:50 EGKK 241850Z 27013KT 9999 BKN010 11/10 Q1005 W (270°) 15.0mph 11°C 10°C
24/02/20 17:50 EGKK 241750Z 23013KT 9999 BKN010 11/10 Q1005 SW (230°) 15.0mph 11°C 10°C
24/02/20 17:20 EGKK 241720Z 23016KT 9999 -RA BKN011 11/10 Q1005 -RA SW (230°) 18.4mph 11°C 10°C
24/02/20 16:50 EGKK 241650Z 23018KT 7000 -RADZ BKN009 BKN017 11/10 Q1005 -RA -DZ SW (230°) 20.7mph 11°C 10°C
24/02/20 16:20 EGKK 241620Z 24018KT 5000 -RADZ BKN008 11/10 Q1005 -RA -DZ WSW (240°) 20.7mph 11°C 10°C
24/02/20 15:20 EGKK 241520Z 23016G26KT 9999 BKN010 11/10 Q1005 SW (230°) 18.4mph 29.9mph 11°C 10°C
24/02/20 14:20 EGKK 241420Z 23014G27KT 9999 -RA BKN009 10/10 Q1006 -RA SW (230°) 16.1mph 31.1mph 10°C 10°C
24/02/20 13:50 EGKK 241350Z 23017KT 9999 -RA BKN009 BKN018 10/10 Q1007 -RA SW (230°) 19.6mph 10°C 10°C
24/02/20 13:20 EGKK 241320Z 23015KT 9999 -RADZ BKN009 BKN018 10/10 Q1008 -RA -DZ SW (230°) 17.3mph 10°C 10°C
24/02/20 12:50 EGKK 241250Z 23016KT 9999 -RADZ BKN009 BKN016 10/10 Q1008 REDZ -RA -DZ SW (230°) 18.4mph 10°C 10°C
24/02/20 12:20 EGKK 241220Z 23016G27KT 3700 DZRA BKN007 BKN014 10/10 Q1008 DZ RA SW (230°) 18.4mph 31.1mph 10°C 10°C
24/02/20 11:50 EGKK 241150Z 23018G28KT 3200 -DZRA BKN006 BKN017 10/10 Q1009 -DZ -RA SW (230°) 20.7mph 32.2mph 10°C 10°C
24/02/20 11:20 EGKK 241120Z 22017KT 3200 -DZRA BKN006 BKN018 10/10 Q1009 RERA REDZ -DZ -RA SW (220°) 19.6mph 10°C 10°C
24/02/20 10:50 EGKK 241050Z 23018G29KT 4000 DZRA BKN007 BKN014 10/10 Q1010 DZ RA SW (230°) 20.7mph 33.4mph 10°C 10°C